sensor_id;sensor_type;location;lat;lon;timestamp;temperature;humidity
3416;DHT22;1721;51.238;9.562;2023-04-25T00:01:17;6.30;96.30
3416;DHT22;1721;51.238;9.562;2023-04-25T00:03:42;6.30;96.40
3416;DHT22;1721;51.238;9.562;2023-04-25T00:06:08;6.30;96.40
3416;DHT22;1721;51.238;9.562;2023-04-25T00:08:34;6.30;96.40
3416;DHT22;1721;51.238;9.562;2023-04-25T00:11:01;6.30;96.50
3416;DHT22;1721;51.238;9.562;2023-04-25T00:13:27;6.30;96.50
3416;DHT22;1721;51.238;9.562;2023-04-25T00:15:52;6.30;96.50
3416;DHT22;1721;51.238;9.562;2023-04-25T00:18:25;6.30;96.60
3416;DHT22;1721;51.238;9.562;2023-04-25T00:20:54;6.30;96.50
3416;DHT22;1721;51.238;9.562;2023-04-25T00:23:20;6.30;96.50
3416;DHT22;1721;51.238;9.562;2023-04-25T00:25:48;6.20;96.50
3416;DHT22;1721;51.238;9.562;2023-04-25T00:28:14;6.20;96.60
3416;DHT22;1721;51.238;9.562;2023-04-25T00:30:40;6.20;96.70
3416;DHT22;1721;51.238;9.562;2023-04-25T00:33:07;6.20;96.90
3416;DHT22;1721;51.238;9.562;2023-04-25T00:35:33;6.20;97.00
3416;DHT22;1721;51.238;9.562;2023-04-25T00:37:59;6.30;97.00
3416;DHT22;1721;51.238;9.562;2023-04-25T00:40:24;6.20;97.10
3416;DHT22;1721;51.238;9.562;2023-04-25T00:42:52;6.20;97.50
3416;DHT22;1721;51.238;9.562;2023-04-25T00:45:18;6.20;97.50
3416;DHT22;1721;51.238;9.562;2023-04-25T00:47:44;6.20;97.60
3416;DHT22;1721;51.238;9.562;2023-04-25T00:50:11;6.20;97.60
3416;DHT22;1721;51.238;9.562;2023-04-25T00:52:42;6.20;97.50
3416;DHT22;1721;51.238;9.562;2023-04-25T00:55:10;6.20;97.60
3416;DHT22;1721;51.238;9.562;2023-04-25T00:57:36;6.20;97.70
3416;DHT22;1721;51.238;9.562;2023-04-25T01:00:02;6.20;97.60
3416;DHT22;1721;51.238;9.562;2023-04-25T01:02:28;6.10;97.30
3416;DHT22;1721;51.238;9.562;2023-04-25T01:04:54;6.10;97.30
3416;DHT22;1721;51.238;9.562;2023-04-25T01:07:19;6.00;97.30
3416;DHT22;1721;51.238;9.562;2023-04-25T01:09:46;6.00;97.30
3416;DHT22;1721;51.238;9.562;2023-04-25T01:12:12;5.90;97.60
3416;DHT22;1721;51.238;9.562;2023-04-25T01:14:38;6.00;97.40
3416;DHT22;1721;51.238;9.562;2023-04-25T01:17:04;5.90;97.30
3416;DHT22;1721;51.238;9.562;2023-04-25T01:19:29;5.90;97.40
3416;DHT22;1721;51.238;9.562;2023-04-25T01:21:56;5.90;97.40
3416;DHT22;1721;51.238;9.562;2023-04-25T01:24:21;5.90;97.50
3416;DHT22;1721;51.238;9.562;2023-04-25T01:26:47;5.90;97.60
3416;DHT22;1721;51.238;9.562;2023-04-25T01:29:17;5.80;97.60
3416;DHT22;1721;51.238;9.562;2023-04-25T01:31:44;5.80;97.40
3416;DHT22;1721;51.238;9.562;2023-04-25T01:34:10;5.80;97.30
3416;DHT22;1721;51.238;9.562;2023-04-25T01:36:36;5.70;97.30
3416;DHT22;1721;51.238;9.562;2023-04-25T01:39:01;5.70;97.40
3416;DHT22;1721;51.238;9.562;2023-04-25T01:41:28;5.60;97.40
3416;DHT22;1721;51.238;9.562;2023-04-25T01:43:54;5.60;97.30
3416;DHT22;1721;51.238;9.562;2023-04-25T01:46:20;5.60;97.40
3416;DHT22;1721;51.238;9.562;2023-04-25T01:48:45;5.60;97.50
3416;DHT22;1721;51.238;9.562;2023-04-25T01:51:11;5.60;97.30
3416;DHT22;1721;51.238;9.562;2023-04-25T01:53:38;5.60;97.40
3416;DHT22;1721;51.238;9.562;2023-04-25T01:56:04;5.60;97.30
3416;DHT22;1721;51.238;9.562;2023-04-25T01:58:30;5.50;97.30
3416;DHT22;1721;51.238;9.562;2023-04-25T02:00:55;5.60;97.20
3416;DHT22;1721;51.238;9.562;2023-04-25T02:03:21;5.50;97.10
3416;DHT22;1721;51.238;9.562;2023-04-25T02:05:46;5.40;97.40
3416;DHT22;1721;51.238;9.562;2023-04-25T02:08:12;5.40;97.30
3416;DHT22;1721;51.238;9.562;2023-04-25T02:10:37;5.40;97.70
3416;DHT22;1721;51.238;9.562;2023-04-25T02:13:03;5.40;97.90
3416;DHT22;1721;51.238;9.562;2023-04-25T02:15:30;5.50;97.80
3416;DHT22;1721;51.238;9.562;2023-04-25T02:17:56;5.50;97.90
3416;DHT22;1721;51.238;9.562;2023-04-25T02:20:24;5.60;98.00
3416;DHT22;1721;51.238;9.562;2023-04-25T02:22:50;5.60;97.90
3416;DHT22;1721;51.238;9.562;2023-04-25T02:25:17;5.60;97.90
3416;DHT22;1721;51.238;9.562;2023-04-25T02:27:45;5.60;97.80
3416;DHT22;1721;51.238;9.562;2023-04-25T02:30:11;5.60;97.90
3416;DHT22;1721;51.238;9.562;2023-04-25T02:32:36;5.60;97.70
3416;DHT22;1721;51.238;9.562;2023-04-25T02:35:02;5.50;97.60
3416;DHT22;1721;51.238;9.562;2023-04-25T02:37:32;5.50;97.90
3416;DHT22;1721;51.238;9.562;2023-04-25T02:39:58;5.50;97.50
3416;DHT22;1721;51.238;9.562;2023-04-25T02:42:23;5.50;97.40
3416;DHT22;1721;51.238;9.562;2023-04-25T02:44:49;5.40;97.20
3416;DHT22;1721;51.238;9.562;2023-04-25T02:47:14;5.30;97.40
3416;DHT22;1721;51.238;9.562;2023-04-25T02:49:40;5.30;97.60
3416;DHT22;1721;51.238;9.562;2023-04-25T02:52:06;5.20;98.00
3416;DHT22;1721;51.238;9.562;2023-04-25T02:54:31;5.20;98.40
3416;DHT22;1721;51.238;9.562;2023-04-25T02:56:57;5.20;98.40
3416;DHT22;1721;51.238;9.562;2023-04-25T02:59:23;5.30;98.50
3416;DHT22;1721;51.238;9.562;2023-04-25T03:01:48;5.30;98.50
3416;DHT22;1721;51.238;9.562;2023-04-25T03:04:14;5.40;98.60
3416;DHT22;1721;51.238;9.562;2023-04-25T03:06:40;5.50;98.80
3416;DHT22;1721;51.238;9.562;2023-04-25T03:09:05;5.60;98.90
3416;DHT22;1721;51.238;9.562;2023-04-25T03:11:31;5.80;99.10
3416;DHT22;1721;51.238;9.562;2023-04-25T03:13:57;5.90;99.20
3416;DHT22;1721;51.238;9.562;2023-04-25T03:16:23;6.10;99.20
3416;DHT22;1721;51.238;9.562;2023-04-25T03:18:49;6.30;99.30
3416;DHT22;1721;51.238;9.562;2023-04-25T03:21:16;6.50;99.40
3416;DHT22;1721;51.238;9.562;2023-04-25T03:23:42;6.60;99.50
3416;DHT22;1721;51.238;9.562;2023-04-25T03:26:07;6.70;99.50
3416;DHT22;1721;51.238;9.562;2023-04-25T03:28:33;6.80;99.50
3416;DHT22;1721;51.238;9.562;2023-04-25T03:30:58;6.90;99.70
3416;DHT22;1721;51.238;9.562;2023-04-25T03:33:24;7.00;99.60
3416;DHT22;1721;51.238;9.562;2023-04-25T03:35:49;7.10;99.50
3416;DHT22;1721;51.238;9.562;2023-04-25T03:38:15;7.20;99.50
3416;DHT22;1721;51.238;9.562;2023-04-25T03:40:41;7.20;99.20
3416;DHT22;1721;51.238;9.562;2023-04-25T03:43:06;7.20;99.10
3416;DHT22;1721;51.238;9.562;2023-04-25T03:45:32;7.20;99.30
3416;DHT22;1721;51.238;9.562;2023-04-25T03:47:58;7.20;99.20
3416;DHT22;1721;51.238;9.562;2023-04-25T03:50:23;7.30;99.00
3416;DHT22;1721;51.238;9.562;2023-04-25T03:52:49;7.30;99.20
3416;DHT22;1721;51.238;9.562;2023-04-25T03:55:15;7.40;99.10
3416;DHT22;1721;51.238;9.562;2023-04-25T03:57:40;7.40;99.00
3416;DHT22;1721;51.238;9.562;2023-04-25T04:00:07;7.60;99.20
3416;DHT22;1721;51.238;9.562;2023-04-25T04:02:33;7.60;99.00
3416;DHT22;1721;51.238;9.562;2023-04-25T04:05:00;7.70;98.90
3416;DHT22;1721;51.238;9.562;2023-04-25T04:07:26;7.80;98.70
3416;DHT22;1721;51.238;9.562;2023-04-25T04:09:51;7.80;98.30
3416;DHT22;1721;51.238;9.562;2023-04-25T04:12:17;7.90;98.20
3416;DHT22;1721;51.238;9.562;2023-04-25T04:14:42;7.90;98.10
3416;DHT22;1721;51.238;9.562;2023-04-25T04:17:08;7.90;97.90
3416;DHT22;1721;51.238;9.562;2023-04-25T04:19:33;8.00;97.80
3416;DHT22;1721;51.238;9.562;2023-04-25T04:21:59;8.00;97.70
3416;DHT22;1721;51.238;9.562;2023-04-25T04:24:25;8.10;97.50
3416;DHT22;1721;51.238;9.562;2023-04-25T04:26:50;8.20;97.50
3416;DHT22;1721;51.238;9.562;2023-04-25T04:29:17;8.30;97.30
3416;DHT22;1721;51.238;9.562;2023-04-25T04:31:50;8.30;97.20
3416;DHT22;1721;51.238;9.562;2023-04-25T04:34:18;8.30;97.10
3416;DHT22;1721;51.238;9.562;2023-04-25T04:36:47;8.30;97.10
3416;DHT22;1721;51.238;9.562;2023-04-25T04:39:13;8.40;96.90
3416;DHT22;1721;51.238;9.562;2023-04-25T04:41:39;8.40;96.90
3416;DHT22;1721;51.238;9.562;2023-04-25T04:44:05;8.30;97.00
3416;DHT22;1721;51.238;9.562;2023-04-25T04:46:32;8.40;96.80
3416;DHT22;1721;51.238;9.562;2023-04-25T04:49:05;8.40;96.70
3416;DHT22;1721;51.238;9.562;2023-04-25T04:51:31;8.50;96.80
3416;DHT22;1721;51.238;9.562;2023-04-25T04:53:57;8.60;96.80
3416;DHT22;1721;51.238;9.562;2023-04-25T04:56:24;8.60;96.80
3416;DHT22;1721;51.238;9.562;2023-04-25T04:58:50;8.60;96.90
3416;DHT22;1721;51.238;9.562;2023-04-25T05:01:16;8.60;96.80
3416;DHT22;1721;51.238;9.562;2023-04-25T05:03:42;8.60;96.80
3416;DHT22;1721;51.238;9.562;2023-04-25T05:06:07;8.60;96.80
3416;DHT22;1721;51.238;9.562;2023-04-25T05:08:34;8.60;97.00
3416;DHT22;1721;51.238;9.562;2023-04-25T05:10:59;8.60;97.40
3416;DHT22;1721;51.238;9.562;2023-04-25T05:13:25;8.60;97.30
3416;DHT22;1721;51.238;9.562;2023-04-25T05:15:50;8.60;97.10
3416;DHT22;1721;51.238;9.562;2023-04-25T05:18:16;8.60;97.30
3416;DHT22;1721;51.238;9.562;2023-04-25T05:20:41;8.60;97.50
3416;DHT22;1721;51.238;9.562;2023-04-25T05:23:07;8.60;97.60
3416;DHT22;1721;51.238;9.562;2023-04-25T05:25:33;8.60;97.90
3416;DHT22;1721;51.238;9.562;2023-04-25T05:27:58;8.60;98.10
3416;DHT22;1721;51.238;9.562;2023-04-25T05:30:24;8.60;98.10
3416;DHT22;1721;51.238;9.562;2023-04-25T05:32:50;8.60;98.10
3416;DHT22;1721;51.238;9.562;2023-04-25T05:35:15;8.60;98.10
3416;DHT22;1721;51.238;9.562;2023-04-25T05:37:41;8.70;98.10
3416;DHT22;1721;51.238;9.562;2023-04-25T05:40:08;8.70;97.90
3416;DHT22;1721;51.238;9.562;2023-04-25T05:42:34;8.70;97.80
3416;DHT22;1721;51.238;9.562;2023-04-25T05:44:59;8.60;97.80
3416;DHT22;1721;51.238;9.562;2023-04-25T05:47:26;8.60;98.40
3416;DHT22;1721;51.238;9.562;2023-04-25T05:49:51;8.60;98.30
3416;DHT22;1721;51.238;9.562;2023-04-25T05:52:17;8.60;98.10
3416;DHT22;1721;51.238;9.562;2023-04-25T05:54:42;8.60;98.00
3416;DHT22;1721;51.238;9.562;2023-04-25T05:57:08;8.70;98.00
3416;DHT22;1721;51.238;9.562;2023-04-25T05:59:33;8.70;98.20
3416;DHT22;1721;51.238;9.562;2023-04-25T06:01:59;8.70;98.30
3416;DHT22;1721;51.238;9.562;2023-04-25T06:04:26;8.50;98.40
3416;DHT22;1721;51.238;9.562;2023-04-25T06:06:51;8.50;98.50
3416;DHT22;1721;51.238;9.562;2023-04-25T06:09:17;8.50;98.40
3416;DHT22;1721;51.238;9.562;2023-04-25T06:11:42;8.50;98.60
3416;DHT22;1721;51.238;9.562;2023-04-25T06:14:08;8.60;98.70
3416;DHT22;1721;51.238;9.562;2023-04-25T06:16:33;8.70;98.70
3416;DHT22;1721;51.238;9.562;2023-04-25T06:18:59;8.70;98.50
3416;DHT22;1721;51.238;9.562;2023-04-25T06:21:24;8.70;98.60
3416;DHT22;1721;51.238;9.562;2023-04-25T06:23:50;8.70;98.60
3416;DHT22;1721;51.238;9.562;2023-04-25T06:26:16;8.70;98.40
3416;DHT22;1721;51.238;9.562;2023-04-25T06:28:41;8.40;98.50
3416;DHT22;1721;51.238;9.562;2023-04-25T06:31:07;8.30;99.00
3416;DHT22;1721;51.238;9.562;2023-04-25T06:33:32;8.40;99.00
3416;DHT22;1721;51.238;9.562;2023-04-25T06:35:58;8.50;98.90
3416;DHT22;1721;51.238;9.562;2023-04-25T06:38:23;8.30;98.70
3416;DHT22;1721;51.238;9.562;2023-04-25T06:40:49;8.10;99.40
3416;DHT22;1721;51.238;9.562;2023-04-25T06:43:15;8.10;99.70
3416;DHT22;1721;51.238;9.562;2023-04-25T06:45:41;8.00;99.90
3416;DHT22;1721;51.238;9.562;2023-04-25T06:48:07;8.00;99.90
3416;DHT22;1721;51.238;9.562;2023-04-25T06:50:33;8.10;99.90
3416;DHT22;1721;51.238;9.562;2023-04-25T06:52:59;8.00;99.90
3416;DHT22;1721;51.238;9.562;2023-04-25T06:55:26;8.00;99.90
3416;DHT22;1721;51.238;9.562;2023-04-25T06:57:52;7.90;99.90
3416;DHT22;1721;51.238;9.562;2023-04-25T07:00:18;8.00;99.90
3416;DHT22;1721;51.238;9.562;2023-04-25T07:02:44;7.90;99.90
3416;DHT22;1721;51.238;9.562;2023-04-25T07:05:10;7.80;99.90
3416;DHT22;1721;51.238;9.562;2023-04-25T07:07:35;7.90;99.90
3416;DHT22;1721;51.238;9.562;2023-04-25T07:10:01;7.90;99.90
3416;DHT22;1721;51.238;9.562;2023-04-25T07:12:26;8.00;99.90
3416;DHT22;1721;51.238;9.562;2023-04-25T07:14:52;8.20;99.90
3416;DHT22;1721;51.238;9.562;2023-04-25T07:17:17;8.20;99.90
3416;DHT22;1721;51.238;9.562;2023-04-25T07:19:43;8.30;99.90
3416;DHT22;1721;51.238;9.562;2023-04-25T07:22:08;8.50;99.90
3416;DHT22;1721;51.238;9.562;2023-04-25T07:24:34;8.50;99.90
3416;DHT22;1721;51.238;9.562;2023-04-25T07:27:00;8.60;99.90
3416;DHT22;1721;51.238;9.562;2023-04-25T07:29:26;8.70;99.90
3416;DHT22;1721;51.238;9.562;2023-04-25T07:31:52;8.90;99.90
3416;DHT22;1721;51.238;9.562;2023-04-25T07:34:18;9.10;99.90
3416;DHT22;1721;51.238;9.562;2023-04-25T07:36:43;9.30;99.70
3416;DHT22;1721;51.238;9.562;2023-04-25T07:39:09;9.40;99.50
3416;DHT22;1721;51.238;9.562;2023-04-25T07:41:34;9.60;99.20
3416;DHT22;1721;51.238;9.562;2023-04-25T07:44:00;9.60;98.80
3416;DHT22;1721;51.238;9.562;2023-04-25T07:46:25;9.90;98.40
3416;DHT22;1721;51.238;9.562;2023-04-25T07:48:51;10.00;97.30
3416;DHT22;1721;51.238;9.562;2023-04-25T07:51:17;9.90;97.10
3416;DHT22;1721;51.238;9.562;2023-04-25T07:53:45;9.90;96.60
3416;DHT22;1721;51.238;9.562;2023-04-25T07:56:10;9.70;97.40
3416;DHT22;1721;51.238;9.562;2023-04-25T07:58:36;9.90;97.10
3416;DHT22;1721;51.238;9.562;2023-04-25T08:01:02;10.00;96.30
3416;DHT22;1721;51.238;9.562;2023-04-25T08:03:27;10.20;95.60
3416;DHT22;1721;51.238;9.562;2023-04-25T08:05:53;10.30;96.00
3416;DHT22;1721;51.238;9.562;2023-04-25T08:08:18;10.40;94.80
3416;DHT22;1721;51.238;9.562;2023-04-25T08:10:44;10.50;94.30
3416;DHT22;1721;51.238;9.562;2023-04-25T08:13:13;10.50;94.60
3416;DHT22;1721;51.238;9.562;2023-04-25T08:15:38;10.60;94.50
3416;DHT22;1721;51.238;9.562;2023-04-25T08:18:04;10.70;94.40
3416;DHT22;1721;51.238;9.562;2023-04-25T08:20:30;10.70;94.00
3416;DHT22;1721;51.238;9.562;2023-04-25T08:22:56;10.70;94.00
3416;DHT22;1721;51.238;9.562;2023-04-25T08:25:21;10.90;93.90
3416;DHT22;1721;51.238;9.562;2023-04-25T08:27:47;10.80;93.40
3416;DHT22;1721;51.238;9.562;2023-04-25T08:30:12;10.60;94.30
3416;DHT22;1721;51.238;9.562;2023-04-25T08:32:38;10.60;93.50
3416;DHT22;1721;51.238;9.562;2023-04-25T08:35:04;10.70;92.60
3416;DHT22;1721;51.238;9.562;2023-04-25T08:37:30;10.70;92.70
3416;DHT22;1721;51.238;9.562;2023-04-25T08:39:56;10.70;93.30
3416;DHT22;1721;51.238;9.562;2023-04-25T08:42:22;10.70;92.80
3416;DHT22;1721;51.238;9.562;2023-04-25T08:44:49;10.70;92.10
3416;DHT22;1721;51.238;9.562;2023-04-25T08:47:15;10.70;91.70
3416;DHT22;1721;51.238;9.562;2023-04-25T08:49:45;10.60;91.70
3416;DHT22;1721;51.238;9.562;2023-04-25T08:52:13;10.40;92.20
3416;DHT22;1721;51.238;9.562;2023-04-25T08:54:42;10.30;91.20
3416;DHT22;1721;51.238;9.562;2023-04-25T08:57:09;10.10;89.50
3416;DHT22;1721;51.238;9.562;2023-04-25T08:59:35;9.80;90.30
3416;DHT22;1721;51.238;9.562;2023-04-25T09:02:03;9.70;90.90
3416;DHT22;1721;51.238;9.562;2023-04-25T09:04:32;9.60;91.20
3416;DHT22;1721;51.238;9.562;2023-04-25T09:06:57;9.70;91.80
3416;DHT22;1721;51.238;9.562;2023-04-25T09:09:24;9.90;91.70
3416;DHT22;1721;51.238;9.562;2023-04-25T09:11:49;10.20;91.40
3416;DHT22;1721;51.238;9.562;2023-04-25T09:14:19;10.40;91.30
3416;DHT22;1721;51.238;9.562;2023-04-25T09:16:57;10.80;91.20
3416;DHT22;1721;51.238;9.562;2023-04-25T09:19:32;10.90;90.40
3416;DHT22;1721;51.238;9.562;2023-04-25T09:22:01;10.70;90.20
3416;DHT22;1721;51.238;9.562;2023-04-25T09:24:42;10.80;91.00
3416;DHT22;1721;51.238;9.562;2023-04-25T09:27:10;10.90;91.30
3416;DHT22;1721;51.238;9.562;2023-04-25T09:29:38;11.40;90.90
3416;DHT22;1721;51.238;9.562;2023-04-25T09:32:23;11.70;88.20
3416;DHT22;1721;51.238;9.562;2023-04-25T09:34:53;11.80;88.60
3416;DHT22;1721;51.238;9.562;2023-04-25T09:37:24;11.50;85.30
3416;DHT22;1721;51.238;9.562;2023-04-25T09:39:52;11.30;80.90
3416;DHT22;1721;51.238;9.562;2023-04-25T09:42:22;11.10;80.00
3416;DHT22;1721;51.238;9.562;2023-04-25T09:44:49;11.20;85.70
3416;DHT22;1721;51.238;9.562;2023-04-25T09:47:16;11.30;83.30
3416;DHT22;1721;51.238;9.562;2023-04-25T09:49:43;11.50;81.70
3416;DHT22;1721;51.238;9.562;2023-04-25T09:52:17;11.40;77.30
3416;DHT22;1721;51.238;9.562;2023-04-25T09:54:44;11.30;76.60
3416;DHT22;1721;51.238;9.562;2023-04-25T09:57:15;11.20;79.40
3416;DHT22;1721;51.238;9.562;2023-04-25T09:59:49;11.10;78.40
3416;DHT22;1721;51.238;9.562;2023-04-25T10:02:23;11.10;80.50
3416;DHT22;1721;51.238;9.562;2023-04-25T10:04:51;11.30;82.40
3416;DHT22;1721;51.238;9.562;2023-04-25T10:07:23;11.20;82.00
3416;DHT22;1721;51.238;9.562;2023-04-25T10:09:55;11.20;82.30
3416;DHT22;1721;51.238;9.562;2023-04-25T10:12:26;11.00;83.40
3416;DHT22;1721;51.238;9.562;2023-04-25T10:14:52;10.80;84.10
3416;DHT22;1721;51.238;9.562;2023-04-25T10:17:20;10.80;83.90
3416;DHT22;1721;51.238;9.562;2023-04-25T10:19:49;10.70;80.00
3416;DHT22;1721;51.238;9.562;2023-04-25T10:22:20;10.50;81.40
3416;DHT22;1721;51.238;9.562;2023-04-25T10:24:49;10.80;81.60
3416;DHT22;1721;51.238;9.562;2023-04-25T10:27:16;11.00;79.70
3416;DHT22;1721;51.238;9.562;2023-04-25T10:29:42;11.00;77.50
3416;DHT22;1721;51.238;9.562;2023-04-25T10:32:10;10.90;75.00
3416;DHT22;1721;51.238;9.562;2023-04-25T10:34:39;10.90;75.80
3416;DHT22;1721;51.238;9.562;2023-04-25T10:37:05;11.00;74.80
3416;DHT22;1721;51.238;9.562;2023-04-25T10:39:33;11.00;75.00
3416;DHT22;1721;51.238;9.562;2023-04-25T10:42:02;11.20;73.90
3416;DHT22;1721;51.238;9.562;2023-04-25T10:44:29;11.10;76.60
3416;DHT22;1721;51.238;9.562;2023-04-25T10:47:00;11.20;76.60
3416;DHT22;1721;51.238;9.562;2023-04-25T10:52:25;11.00;72.80
3416;DHT22;1721;51.238;9.562;2023-04-25T10:57:40;10.70;74.50
3416;DHT22;1721;51.238;9.562;2023-04-25T11:00:17;10.60;76.30
3416;DHT22;1721;51.238;9.562;2023-04-25T11:02:48;10.60;76.00
3416;DHT22;1721;51.238;9.562;2023-04-25T11:05:32;10.60;72.80
3416;DHT22;1721;51.238;9.562;2023-04-25T11:07:58;10.50;75.50
3416;DHT22;1721;51.238;9.562;2023-04-25T11:10:34;10.40;72.00
3416;DHT22;1721;51.238;9.562;2023-04-25T11:13:03;10.40;71.90
3416;DHT22;1721;51.238;9.562;2023-04-25T11:15:29;10.50;71.70
3416;DHT22;1721;51.238;9.562;2023-04-25T11:17:55;10.70;71.10
3416;DHT22;1721;51.238;9.562;2023-04-25T11:20:21;10.90;71.80
3416;DHT22;1721;51.238;9.562;2023-04-25T11:22:47;11.10;73.50
3416;DHT22;1721;51.238;9.562;2023-04-25T11:25:14;11.20;71.50
3416;DHT22;1721;51.238;9.562;2023-04-25T11:27:53;11.40;72.20
3416;DHT22;1721;51.238;9.562;2023-04-25T11:30:19;11.60;75.70
3416;DHT22;1721;51.238;9.562;2023-04-25T11:32:45;11.80;71.30
3416;DHT22;1721;51.238;9.562;2023-04-25T11:35:12;12.00;70.50
3416;DHT22;1721;51.238;9.562;2023-04-25T11:37:42;12.00;69.10
3416;DHT22;1721;51.238;9.562;2023-04-25T11:40:09;11.80;66.40
3416;DHT22;1721;51.238;9.562;2023-04-25T11:42:39;11.50;70.50
3416;DHT22;1721;51.238;9.562;2023-04-25T11:45:05;11.60;69.70
3416;DHT22;1721;51.238;9.562;2023-04-25T11:47:32;11.70;66.60
3416;DHT22;1721;51.238;9.562;2023-04-25T11:49:59;11.70;66.70
3416;DHT22;1721;51.238;9.562;2023-04-25T11:52:36;11.60;65.10
3416;DHT22;1721;51.238;9.562;2023-04-25T11:55:04;11.60;65.20
3416;DHT22;1721;51.238;9.562;2023-04-25T11:57:32;11.50;66.30
3416;DHT22;1721;51.238;9.562;2023-04-25T12:00:15;11.30;69.10
3416;DHT22;1721;51.238;9.562;2023-04-25T12:02:54;11.10;67.20
3416;DHT22;1721;51.238;9.562;2023-04-25T12:05:24;11.10;68.00
3416;DHT22;1721;51.238;9.562;2023-04-25T12:07:49;11.10;68.00
3416;DHT22;1721;51.238;9.562;2023-04-25T12:10:16;11.20;69.10
3416;DHT22;1721;51.238;9.562;2023-04-25T12:12:44;11.30;68.70
3416;DHT22;1721;51.238;9.562;2023-04-25T12:15:18;11.30;68.80
3416;DHT22;1721;51.238;9.562;2023-04-25T12:17:49;11.20;66.90
3416;DHT22;1721;51.238;9.562;2023-04-25T12:20:18;11.10;67.90
3416;DHT22;1721;51.238;9.562;2023-04-25T12:22:48;11.10;66.40
3416;DHT22;1721;51.238;9.562;2023-04-25T12:25:34;11.20;67.50
3416;DHT22;1721;51.238;9.562;2023-04-25T12:28:17;11.20;64.90
3416;DHT22;1721;51.238;9.562;2023-04-25T12:31:05;11.10;66.60
3416;DHT22;1721;51.238;9.562;2023-04-25T12:33:35;10.90;63.90
3416;DHT22;1721;51.238;9.562;2023-04-25T12:36:03;11.00;68.90
3416;DHT22;1721;51.238;9.562;2023-04-25T12:38:36;11.20;67.30
3416;DHT22;1721;51.238;9.562;2023-04-25T12:41:02;11.20;64.80
3416;DHT22;1721;51.238;9.562;2023-04-25T12:43:28;11.30;68.50
3416;DHT22;1721;51.238;9.562;2023-04-25T12:45:55;11.60;68.60
3416;DHT22;1721;51.238;9.562;2023-04-25T12:48:21;11.90;67.90
3416;DHT22;1721;51.238;9.562;2023-04-25T12:50:48;12.40;67.60
3416;DHT22;1721;51.238;9.562;2023-04-25T12:53:18;12.60;61.60
3416;DHT22;1721;51.238;9.562;2023-04-25T12:55:44;12.60;61.10
3416;DHT22;1721;51.238;9.562;2023-04-25T12:58:12;12.60;61.70
3416;DHT22;1721;51.238;9.562;2023-04-25T13:00:38;12.50;60.10
3416;DHT22;1721;51.238;9.562;2023-04-25T13:03:04;12.00;61.90
3416;DHT22;1721;51.238;9.562;2023-04-25T13:05:30;11.50;63.00
3416;DHT22;1721;51.238;9.562;2023-04-25T13:07:56;11.50;63.90
3416;DHT22;1721;51.238;9.562;2023-04-25T13:10:21;11.30;66.50
3416;DHT22;1721;51.238;9.562;2023-04-25T13:12:47;11.20;66.00
3416;DHT22;1721;51.238;9.562;2023-04-25T13:15:13;11.10;66.30
3416;DHT22;1721;51.238;9.562;2023-04-25T13:17:41;11.00;67.80
3416;DHT22;1721;51.238;9.562;2023-04-25T13:20:07;11.10;66.90
3416;DHT22;1721;51.238;9.562;2023-04-25T13:22:37;11.20;68.80
3416;DHT22;1721;51.238;9.562;2023-04-25T13:25:04;11.40;64.60
3416;DHT22;1721;51.238;9.562;2023-04-25T13:27:30;11.60;65.40
3416;DHT22;1721;51.238;9.562;2023-04-25T13:29:58;11.70;65.00
3416;DHT22;1721;51.238;9.562;2023-04-25T13:32:23;11.60;63.80
3416;DHT22;1721;51.238;9.562;2023-04-25T13:34:49;11.50;60.30
3416;DHT22;1721;51.238;9.562;2023-04-25T13:37:15;11.60;62.70
3416;DHT22;1721;51.238;9.562;2023-04-25T13:39:40;11.40;60.70
3416;DHT22;1721;51.238;9.562;2023-04-25T13:42:06;11.10;63.40
3416;DHT22;1721;51.238;9.562;2023-04-25T13:44:31;11.10;65.40
3416;DHT22;1721;51.238;9.562;2023-04-25T13:46:57;11.10;65.70
3416;DHT22;1721;51.238;9.562;2023-04-25T13:49:23;11.20;67.10
3416;DHT22;1721;51.238;9.562;2023-04-25T13:51:48;11.30;65.10
3416;DHT22;1721;51.238;9.562;2023-04-25T13:54:14;11.50;67.50
3416;DHT22;1721;51.238;9.562;2023-04-25T13:56:40;11.60;63.60
3416;DHT22;1721;51.238;9.562;2023-04-25T13:59:07;11.70;67.60
3416;DHT22;1721;51.238;9.562;2023-04-25T14:01:32;11.50;65.80
3416;DHT22;1721;51.238;9.562;2023-04-25T14:04:01;11.40;66.00
3416;DHT22;1721;51.238;9.562;2023-04-25T14:06:27;11.10;66.50
3416;DHT22;1721;51.238;9.562;2023-04-25T14:08:53;10.70;67.10
3416;DHT22;1721;51.238;9.562;2023-04-25T14:11:19;10.80;69.80
3416;DHT22;1721;51.238;9.562;2023-04-25T14:13:45;10.90;67.50
3416;DHT22;1721;51.238;9.562;2023-04-25T14:16:11;11.00;67.70
3416;DHT22;1721;51.238;9.562;2023-04-25T14:18:37;11.20;68.10
3416;DHT22;1721;51.238;9.562;2023-04-25T14:21:02;11.20;67.90
3416;DHT22;1721;51.238;9.562;2023-04-25T14:23:28;11.30;69.40
3416;DHT22;1721;51.238;9.562;2023-04-25T14:25:53;11.40;70.10
3416;DHT22;1721;51.238;9.562;2023-04-25T14:28:19;11.30;68.50
3416;DHT22;1721;51.238;9.562;2023-04-25T14:30:45;11.30;66.80
3416;DHT22;1721;51.238;9.562;2023-04-25T14:33:10;11.30;65.70
3416;DHT22;1721;51.238;9.562;2023-04-25T14:35:36;11.30;64.90
3416;DHT22;1721;51.238;9.562;2023-04-25T14:38:02;11.20;64.90
3416;DHT22;1721;51.238;9.562;2023-04-25T14:40:27;11.10;63.80
3416;DHT22;1721;51.238;9.562;2023-04-25T14:42:53;11.00;65.40
3416;DHT22;1721;51.238;9.562;2023-04-25T14:45:19;11.00;66.00
3416;DHT22;1721;51.238;9.562;2023-04-25T14:47:44;11.10;67.30
3416;DHT22;1721;51.238;9.562;2023-04-25T14:50:10;11.20;68.10
3416;DHT22;1721;51.238;9.562;2023-04-25T14:52:36;11.00;67.30
3416;DHT22;1721;51.238;9.562;2023-04-25T14:55:01;11.10;66.20
3416;DHT22;1721;51.238;9.562;2023-04-25T14:57:33;11.10;66.40
3416;DHT22;1721;51.238;9.562;2023-04-25T15:00:00;11.10;69.30
3416;DHT22;1721;51.238;9.562;2023-04-25T15:02:26;11.00;68.90
3416;DHT22;1721;51.238;9.562;2023-04-25T15:04:52;11.00;67.30
3416;DHT22;1721;51.238;9.562;2023-04-25T15:07:17;10.90;66.50
3416;DHT22;1721;51.238;9.562;2023-04-25T15:09:43;10.90;66.60
3416;DHT22;1721;51.238;9.562;2023-04-25T15:12:09;10.70;67.60
3416;DHT22;1721;51.238;9.562;2023-04-25T15:14:34;10.70;70.10
3416;DHT22;1721;51.238;9.562;2023-04-25T15:17:00;10.70;68.00
3416;DHT22;1721;51.238;9.562;2023-04-25T15:19:26;10.70;69.00
3416;DHT22;1721;51.238;9.562;2023-04-25T15:21:52;10.70;71.00
3416;DHT22;1721;51.238;9.562;2023-04-25T15:24:17;10.60;68.40
3416;DHT22;1721;51.238;9.562;2023-04-25T15:26:43;10.40;68.00
3416;DHT22;1721;51.238;9.562;2023-04-25T15:29:10;10.20;70.10
3416;DHT22;1721;51.238;9.562;2023-04-25T15:31:37;10.10;68.90
3416;DHT22;1721;51.238;9.562;2023-04-25T15:34:02;10.00;70.10
3416;DHT22;1721;51.238;9.562;2023-04-25T15:36:28;9.80;73.00
3416;DHT22;1721;51.238;9.562;2023-04-25T15:38:54;9.70;72.40
3416;DHT22;1721;51.238;9.562;2023-04-25T15:41:21;9.60;74.30
3416;DHT22;1721;51.238;9.562;2023-04-25T15:43:47;9.70;74.30
3416;DHT22;1721;51.238;9.562;2023-04-25T15:46:13;9.70;72.80
3416;DHT22;1721;51.238;9.562;2023-04-25T15:48:38;9.50;73.60
3416;DHT22;1721;51.238;9.562;2023-04-25T15:51:04;9.60;74.40
3416;DHT22;1721;51.238;9.562;2023-04-25T15:53:30;9.50;71.60
3416;DHT22;1721;51.238;9.562;2023-04-25T15:55:55;9.50;72.50
3416;DHT22;1721;51.238;9.562;2023-04-25T15:58:21;9.60;74.20
3416;DHT22;1721;51.238;9.562;2023-04-25T16:00:46;9.60;71.80
3416;DHT22;1721;51.238;9.562;2023-04-25T16:03:13;9.70;72.90
3416;DHT22;1721;51.238;9.562;2023-04-25T16:05:39;9.90;72.40
3416;DHT22;1721;51.238;9.562;2023-04-25T16:08:05;9.90;71.60
3416;DHT22;1721;51.238;9.562;2023-04-25T16:10:31;9.90;71.00
3416;DHT22;1721;51.238;9.562;2023-04-25T16:12:57;9.90;72.80